Terminal Aerodrome Forecast
Issued by NWS Green Bay, WI

Home | Current Version | Previous Version | Text Only | Print | Product List | Glossary On
Versions: 1 2 3 4 5 6 7 8 9 10 11 12 13 14 15 16
000
FTUS43 KGRB 241727
TAFGRB
TAF
KGRB 241727Z 2418/2518 28015G24KT P6SM VCSH SCT035 BKN060
      TEMPO 2419/2423 -SHRA BKN035
     FM242300 29010KT P6SM -SHRA SCT020 BKN040
     FM250300 28005KT P6SM BKN090
     FM251200 29007KT P6SM BKN045
     FM251700 29009KT P6SM BKN050=

USA.gov is the U.S. government's official web portal to all federal, state and local government web resources and services.